createdAt,value
2022-10-20T00:03:58.126Z,10.96
2022-10-20T00:09:05.336Z,10.95
2022-10-20T00:14:09.104Z,10.86
2022-10-20T00:19:13.499Z,10.82
2022-10-20T00:24:20.776Z,10.82
2022-10-20T00:29:24.495Z,10.75
2022-10-20T00:34:28.145Z,10.69
2022-10-20T00:39:33.385Z,10.73
2022-10-20T00:45:01.667Z,10.70
2022-10-20T00:50:08.166Z,10.69
2022-10-20T00:55:16.493Z,10.57
2022-10-20T01:00:20.012Z,10.60
2022-10-20T01:05:24.003Z,10.52
2022-10-20T01:10:37.291Z,10.47
2022-10-20T01:15:47.204Z,10.51
2022-10-20T01:21:05.684Z,10.54
2022-10-20T01:26:22.583Z,10.51
2022-10-20T01:31:31.735Z,10.44
2022-10-20T01:36:40.834Z,10.48
2022-10-20T01:41:50.362Z,10.44
2022-10-20T01:46:57.840Z,10.50
2022-10-20T01:52:01.807Z,10.48
2022-10-20T01:57:18.792Z,10.54
2022-10-20T02:02:36.547Z,10.47
2022-10-20T02:07:40.711Z,10.50
2022-10-20T02:12:50.065Z,10.44
2022-10-20T02:18:01.906Z,10.43
2022-10-20T02:23:07.590Z,10.40
2022-10-20T02:28:14.203Z,10.44
2022-10-20T02:33:21.073Z,10.47
2022-10-20T02:38:24.891Z,10.46
2022-10-20T02:43:28.547Z,10.46
2022-10-20T02:48:33.564Z,10.46
2022-10-20T02:53:37.216Z,10.47
2022-10-20T02:58:40.860Z,10.52
2022-10-20T03:03:45.948Z,10.50
2022-10-20T03:08:49.615Z,10.45
2022-10-20T03:13:53.358Z,10.47
2022-10-20T03:19:01.593Z,10.48
2022-10-20T03:24:08.426Z,10.41
2022-10-20T03:29:12.079Z,10.45
2022-10-20T03:34:17.132Z,10.41
2022-10-20T03:39:20.947Z,10.45
2022-10-20T03:44:24.675Z,10.45
2022-10-20T03:49:31.503Z,10.46
2022-10-20T03:54:36.928Z,10.51
2022-10-20T03:59:40.789Z,10.49
2022-10-20T04:04:45.813Z,10.50
2022-10-20T04:09:49.451Z,10.52
2022-10-20T04:14:53.107Z,10.48
2022-10-20T04:19:58.082Z,10.54
2022-10-20T04:25:01.833Z,10.61
2022-10-20T04:30:06.100Z,10.58
2022-10-20T04:35:11.408Z,10.62
2022-10-20T04:40:15.032Z,10.65
2022-10-20T04:45:18.977Z,10.68
2022-10-20T04:50:24.136Z,10.77
2022-10-20T04:55:42.858Z,10.78
2022-10-20T05:00:46.512Z,10.79
2022-10-20T05:05:51.471Z,10.81
2022-10-20T05:10:55.151Z,10.80
2022-10-20T05:15:58.836Z,10.73
2022-10-20T05:21:09.701Z,10.77
2022-10-20T05:26:15.884Z,10.73
2022-10-20T05:31:22.218Z,10.75
2022-10-20T05:36:28.348Z,10.72
2022-10-20T05:41:36.473Z,10.65
2022-10-20T05:46:42.829Z,10.66
2022-10-20T05:51:48.799Z,10.63
2022-10-20T05:56:52.471Z,10.63
2022-10-20T06:01:56.224Z,10.63
2022-10-20T06:07:01.263Z,10.68
2022-10-20T06:12:05.787Z,10.74
2022-10-20T06:17:10.671Z,10.79
2022-10-20T06:22:15.712Z,10.83
2022-10-20T06:27:19.388Z,10.86
2022-10-20T06:32:23.101Z,10.92
2022-10-20T06:37:28.136Z,10.96
2022-10-20T06:42:32.191Z,11.06
2022-10-20T06:47:37.184Z,11.05
2022-10-20T06:52:42.381Z,11.08
2022-10-20T06:57:46.045Z,11.11
2022-10-20T07:02:49.804Z,11.20
2022-10-20T07:07:54.995Z,11.24
2022-10-20T07:12:58.757Z,11.25
2022-10-20T07:18:02.519Z,11.37
2022-10-20T07:23:07.542Z,11.43
2022-10-20T07:28:11.195Z,11.52
2022-10-20T07:33:14.854Z,11.58
2022-10-20T07:38:19.893Z,11.67
2022-10-20T07:43:23.631Z,11.77
2022-10-20T07:48:27.597Z,11.75
2022-10-20T07:53:32.633Z,11.87
2022-10-20T07:58:36.307Z,12.00
2022-10-20T08:03:40.201Z,12.09
2022-10-20T08:08:45.257Z,12.14
2022-10-20T08:13:49.072Z,12.24
2022-10-20T08:19:06.741Z,12.34
2022-10-20T08:24:11.736Z,12.43
2022-10-20T08:29:15.441Z,12.57
2022-10-20T08:34:19.123Z,12.70
2022-10-20T08:39:24.458Z,12.78
2022-10-20T08:44:31.460Z,12.92
2022-10-20T08:49:36.580Z,12.93
2022-10-20T08:54:41.752Z,13.04
2022-10-20T08:59:45.520Z,13.07
2022-10-20T09:04:52.592Z,13.25
2022-10-20T09:10:05.621Z,13.46
2022-10-20T09:15:12.095Z,13.48
2022-10-20T09:20:21.760Z,13.61
2022-10-20T09:25:27.599Z,13.69
2022-10-20T09:30:35.457Z,13.76
2022-10-20T09:35:40.868Z,13.77
2022-10-20T09:40:54.764Z,13.81
2022-10-20T09:46:04.925Z,13.79
2022-10-20T09:51:15.667Z,13.81
2022-10-20T09:56:27.307Z,13.78
2022-10-20T10:01:31.462Z,13.78
2022-10-20T10:06:42.887Z,13.78
2022-10-20T10:11:48.042Z,13.74
2022-10-20T10:16:51.992Z,13.76
2022-10-20T10:21:58.163Z,13.73
2022-10-20T10:27:03.421Z,13.74
2022-10-20T10:32:16.149Z,13.72
2022-10-20T10:42:44.124Z,13.66
2022-10-20T10:48:16.941Z,13.73
2022-10-20T10:53:29.859Z,13.73
2022-10-20T10:58:46.006Z,13.68
2022-10-20T11:04:07.477Z,13.69
2022-10-20T11:09:23.848Z,13.61
2022-10-20T11:14:42.823Z,13.59
2022-10-20T11:20:12.164Z,13.56
2022-10-20T11:25:28.340Z,13.62
2022-10-20T11:30:35.302Z,13.71
2022-10-20T11:35:43.315Z,13.78
2022-10-20T11:40:53.649Z,13.87
2022-10-20T11:46:03.597Z,14.09
2022-10-20T11:51:46.280Z,14.11
2022-10-20T11:56:59.835Z,14.06
2022-10-20T12:02:25.461Z,14.04
2022-10-20T12:08:24.740Z,14.06
2022-10-20T12:13:36.511Z,14.26
2022-10-20T12:19:07.661Z,14.68
2022-10-20T12:24:44.131Z,15.14
2022-10-20T12:30:00.638Z,15.24
2022-10-20T12:35:31.601Z,15.23
2022-10-20T12:40:45.191Z,15.48
2022-10-20T12:45:49.162Z,15.66
2022-10-20T12:50:55.040Z,16.07
2022-10-20T12:56:00.921Z,16.29
2022-10-20T13:01:09.833Z,16.84
2022-10-20T13:06:43.741Z,16.73
2022-10-20T13:11:57.686Z,16.62
2022-10-20T13:17:13.777Z,16.61
2022-10-20T13:22:38.951Z,16.99
2022-10-20T13:27:42.744Z,19.00
2022-10-20T13:33:11.465Z,20.68
2022-10-20T13:38:27.521Z,21.77
2022-10-20T13:43:39.336Z,22.39
2022-10-20T13:48:56.884Z,22.58
2022-10-20T13:54:05.645Z,22.22
2022-10-20T14:04:29.698Z,21.35
2022-10-20T14:09:35.038Z,20.99
2022-10-20T14:14:44.638Z,21.09
2022-10-20T14:19:48.476Z,20.69
2022-10-20T14:24:55.726Z,21.37
2022-10-20T14:30:00.833Z,22.67
2022-10-20T14:35:19.919Z,22.72
2022-10-20T14:40:27.807Z,23.42
2022-10-20T14:50:40.975Z,23.09
2022-10-20T14:55:46.119Z,23.93
2022-10-20T15:00:49.948Z,24.09
2022-10-20T15:05:53.938Z,24.14
2022-10-20T15:10:59.597Z,24.30
2022-10-20T15:16:04.694Z,24.33
2022-10-20T15:21:09.144Z,22.76
2022-10-20T15:26:15.323Z,22.15
2022-10-20T15:31:23.382Z,21.30
2022-10-20T15:36:31.897Z,20.59
2022-10-20T15:41:37.864Z,20.35
2022-10-20T15:46:42.220Z,20.10
2022-10-20T15:51:47.181Z,19.98
2022-10-20T15:56:52.252Z,19.97
2022-10-20T16:01:56.005Z,19.85
2022-10-20T16:07:02.813Z,19.76
2022-10-20T16:12:08.438Z,19.48
2022-10-20T16:17:12.148Z,19.27
2022-10-20T16:22:15.936Z,19.25
2022-10-20T16:27:21.018Z,19.23
2022-10-20T16:32:25.032Z,19.00
2022-10-20T16:37:28.789Z,18.96
2022-10-20T16:42:33.877Z,18.87
2022-10-20T16:47:37.852Z,18.72
2022-10-20T16:52:41.719Z,18.53
2022-10-20T16:57:46.712Z,18.42
2022-10-20T17:02:52.911Z,18.32
2022-10-20T17:07:56.644Z,18.13
2022-10-20T17:13:01.797Z,18.00
2022-10-20T17:18:05.586Z,17.99
2022-10-20T17:23:09.288Z,17.89
2022-10-20T17:28:14.312Z,17.84
2022-10-20T17:33:18.138Z,17.73
2022-10-20T17:38:22.574Z,17.72
2022-10-20T17:43:28.981Z,17.62
2022-10-20T17:48:33.113Z,17.45
2022-10-20T17:53:38.440Z,17.38
2022-10-20T17:58:45.699Z,17.24
2022-10-20T18:03:54.456Z,17.20
2022-10-20T18:08:59.873Z,17.14
2022-10-20T18:14:06.043Z,17.05
2022-10-20T18:19:14.849Z,16.88
2022-10-20T18:24:19.411Z,16.79
2022-10-20T18:29:25.519Z,16.69
2022-10-20T18:34:29.291Z,16.66
2022-10-20T18:39:33.086Z,16.55
2022-10-20T18:44:38.080Z,16.52
2022-10-20T18:49:41.883Z,16.54
2022-10-20T18:54:45.604Z,16.43
2022-10-20T18:59:51.768Z,16.43
2022-10-20T19:04:55.999Z,16.32
2022-10-20T19:09:59.686Z,16.35
2022-10-20T19:15:05.141Z,16.30
2022-10-20T19:20:09.252Z,16.32
2022-10-20T19:25:12.934Z,16.32
2022-10-20T19:30:18.449Z,16.21
2022-10-20T19:35:22.348Z,16.10
2022-10-20T19:40:28.329Z,16.06
2022-10-20T19:45:33.738Z,15.96
2022-10-20T19:50:37.527Z,15.85
2022-10-20T19:55:41.224Z,15.77
2022-10-20T20:00:47.152Z,15.75
2022-10-20T20:05:58.139Z,15.71
2022-10-20T20:11:03.427Z,15.70
2022-10-20T20:16:09.868Z,15.60
2022-10-20T20:21:14.414Z,15.61
2022-10-20T20:26:18.164Z,15.56
2022-10-20T20:31:24.187Z,15.55
2022-10-20T20:36:28.703Z,15.56
2022-10-20T20:41:32.407Z,15.52
2022-10-20T20:46:37.896Z,15.43
2022-10-20T20:51:41.558Z,15.36
2022-10-20T20:56:45.249Z,15.39
2022-10-20T21:01:50.383Z,15.33
2022-10-20T21:07:02.071Z,15.31
2022-10-20T21:12:06.329Z,15.32
2022-10-20T21:17:11.459Z,15.28
2022-10-20T21:22:15.154Z,15.28
2022-10-20T21:27:18.822Z,15.25
2022-10-20T21:32:23.924Z,15.27
2022-10-20T21:37:29.096Z,15.15
2022-10-20T21:42:32.775Z,15.13
2022-10-20T21:47:37.876Z,15.11
2022-10-20T21:52:41.517Z,15.06
2022-10-20T21:57:45.269Z,15.04
2022-10-20T22:02:51.017Z,15.05
2022-10-20T22:07:54.688Z,15.02
2022-10-20T22:12:58.406Z,14.96
2022-10-20T22:18:03.492Z,14.91
2022-10-20T22:23:07.135Z,14.93
2022-10-20T22:28:10.807Z,14.87
2022-10-20T22:33:15.825Z,14.86
2022-10-20T22:38:19.627Z,14.84
2022-10-20T22:43:23.267Z,14.77
2022-10-20T22:48:28.444Z,14.89
2022-10-20T22:53:32.190Z,14.95
2022-10-20T22:58:35.944Z,14.96
2022-10-20T23:03:41.588Z,14.97
2022-10-20T23:08:46.933Z,15.02
2022-10-20T23:13:51.146Z,15.01
2022-10-20T23:18:56.372Z,15.04
2022-10-20T23:24:00.042Z,15.01
2022-10-20T23:29:03.656Z,14.91
2022-10-20T23:34:09.808Z,14.91
2022-10-20T23:39:13.553Z,14.92
2022-10-20T23:44:17.281Z,14.88
2022-10-20T23:49:22.260Z,14.81
2022-10-20T23:54:26.088Z,14.86
2022-10-20T23:59:29.710Z,14.90
